createdAt,value
2023-07-02T00:01:09.406Z,14.50
2023-07-02T00:03:44.983Z,14.70
2023-07-02T00:06:23.637Z,14.97
2023-07-02T00:08:55.129Z,14.80
2023-07-02T00:11:26.137Z,14.67
2023-07-02T00:14:01.858Z,14.40
2023-07-02T00:16:34.928Z,14.50
2023-07-02T00:19:03.430Z,14.33
2023-07-02T00:21:37.039Z,14.80
2023-07-02T00:24:06.279Z,14.43
2023-07-02T00:26:34.689Z,14.40
2023-07-02T00:29:05.093Z,14.30
2023-07-02T00:31:37.478Z,14.20
2023-07-02T00:34:09.158Z,14.10
2023-07-02T00:36:40.413Z,14.30
2023-07-02T00:39:08.980Z,14.10
2023-07-02T00:41:37.133Z,13.93
2023-07-02T00:44:05.659Z,14.40
2023-07-02T00:46:33.971Z,14.03
2023-07-02T00:49:03.942Z,13.80
2023-07-02T00:51:34.468Z,13.73
2023-07-02T00:54:06.224Z,14.00
2023-07-02T00:56:35.703Z,13.60
2023-07-02T00:59:04.518Z,13.87
2023-07-02T01:01:39.161Z,13.07
2023-07-02T01:04:10.438Z,13.63
2023-07-02T01:06:42.788Z,13.57
2023-07-02T01:09:15.217Z,13.60
2023-07-02T01:11:47.328Z,13.87
2023-07-02T01:14:20.912Z,13.67
2023-07-02T01:16:51.545Z,13.67
2023-07-02T01:19:24.509Z,14.17
2023-07-02T01:21:54.365Z,14.60
2023-07-02T01:24:23.411Z,14.90
2023-07-02T01:26:53.104Z,14.10
2023-07-02T01:29:25.114Z,14.50
2023-07-02T01:32:02.372Z,14.60
2023-07-02T01:34:40.174Z,15.20
2023-07-02T01:37:15.443Z,14.13
2023-07-02T01:39:43.958Z,14.13
2023-07-02T01:42:16.959Z,14.40
2023-07-02T01:44:46.666Z,14.40
2023-07-02T01:47:17.036Z,14.10
2023-07-02T01:49:47.167Z,14.43
2023-07-02T01:52:17.021Z,13.80
2023-07-02T01:54:45.945Z,14.10
2023-07-02T01:57:16.519Z,13.87
2023-07-02T01:59:44.975Z,13.60
2023-07-02T02:02:13.281Z,14.10
2023-07-02T02:04:42.050Z,14.00
2023-07-02T02:07:10.635Z,14.20
2023-07-02T02:09:40.205Z,13.70
2023-07-02T02:12:11.394Z,14.03
2023-07-02T02:14:39.591Z,14.47
2023-07-02T02:17:09.965Z,13.60
2023-07-02T02:19:38.265Z,14.10
2023-07-02T02:22:06.860Z,13.80
2023-07-02T02:24:35.730Z,13.63
2023-07-02T02:27:07.716Z,13.70
2023-07-02T02:29:37.957Z,13.83
2023-07-02T02:32:09.389Z,13.70
2023-07-02T02:34:37.893Z,14.20
2023-07-02T02:37:06.349Z,13.87
2023-07-02T02:39:37.038Z,13.93
2023-07-02T02:42:09.876Z,14.10
2023-07-02T02:44:41.112Z,13.93
2023-07-02T02:47:09.462Z,14.40
2023-07-02T02:49:40.649Z,13.90
2023-07-02T02:52:08.990Z,14.33
2023-07-02T02:54:37.499Z,13.83
2023-07-02T02:57:09.640Z,13.97
2023-07-02T02:59:40.904Z,14.17
2023-07-02T03:02:09.438Z,13.70
2023-07-02T03:04:42.517Z,13.90
2023-07-02T03:07:11.001Z,14.00
2023-07-02T03:09:39.340Z,14.60
2023-07-02T03:12:10.104Z,14.20
2023-07-02T03:14:38.671Z,14.70
2023-07-02T03:17:07.479Z,14.20
2023-07-02T03:19:40.878Z,14.20
2023-07-02T03:22:09.191Z,14.60
2023-07-02T03:24:39.687Z,14.83
2023-07-02T03:27:09.865Z,14.70
2023-07-02T03:29:39.347Z,14.83
2023-07-02T03:32:08.505Z,14.70
2023-07-02T03:34:36.750Z,14.50
2023-07-02T03:37:05.131Z,14.70
2023-07-02T03:39:36.168Z,14.80
2023-07-02T03:42:04.464Z,15.97
2023-07-02T03:44:36.258Z,15.33
2023-07-02T03:47:04.690Z,15.10
2023-07-02T03:49:33.004Z,14.40
2023-07-02T03:52:01.380Z,15.30
2023-07-02T03:54:29.977Z,15.10
2023-07-02T03:56:58.416Z,15.00
2023-07-02T03:59:26.722Z,14.73
2023-07-02T04:01:56.318Z,14.40
2023-07-02T04:04:24.827Z,14.70
2023-07-02T04:06:55.921Z,14.13
2023-07-02T04:09:24.108Z,14.63
2023-07-02T04:11:59.328Z,14.93
2023-07-02T04:14:27.674Z,15.20
2023-07-02T04:16:57.394Z,15.10
2023-07-02T04:19:28.317Z,14.90
2023-07-02T04:21:59.592Z,15.23
2023-07-02T04:24:28.304Z,15.37
2023-07-02T04:27:23.053Z,15.23
2023-07-02T04:29:48.962Z,15.37
2023-07-02T04:32:23.519Z,15.83
2023-07-02T04:34:53.713Z,15.83
2023-07-02T04:37:24.623Z,15.93
2023-07-02T04:39:58.385Z,16.33
2023-07-02T04:42:28.959Z,16.00
2023-07-02T04:44:57.419Z,15.03
2023-07-02T04:47:27.456Z,16.50
2023-07-02T04:49:56.023Z,16.27
2023-07-02T04:52:26.881Z,16.40
2023-07-02T04:54:59.348Z,15.97
2023-07-02T04:57:29.386Z,15.70
2023-07-02T04:59:57.733Z,16.10
2023-07-02T05:02:27.608Z,16.20
2023-07-02T05:04:56.069Z,15.93
2023-07-02T05:07:24.604Z,16.70
2023-07-02T05:09:54.148Z,16.30
2023-07-02T05:12:25.804Z,16.30
2023-07-02T05:14:56.498Z,16.00
2023-07-02T05:17:26.457Z,15.33
2023-07-02T05:19:54.731Z,17.10
2023-07-02T05:22:23.208Z,15.60
2023-07-02T05:24:55.832Z,15.97
2023-07-02T05:27:26.800Z,15.30
2023-07-02T05:30:07.664Z,15.53
2023-07-02T05:32:38.063Z,15.70
2023-07-02T05:35:09.169Z,15.10
2023-07-02T05:37:41.784Z,16.00
2023-07-02T05:40:16.063Z,16.33
2023-07-02T05:42:50.991Z,15.30
2023-07-02T05:45:25.497Z,14.57
2023-07-02T05:48:05.225Z,15.40
2023-07-02T05:50:42.991Z,15.20
2023-07-02T05:53:12.293Z,15.23
2023-07-02T05:56:03.548Z,15.30
2023-07-02T05:58:48.494Z,15.30
2023-07-02T06:01:19.666Z,15.17
2023-07-02T06:03:52.086Z,15.10
2023-07-02T06:06:20.962Z,14.93
2023-07-02T06:08:49.283Z,15.60
2023-07-02T06:11:27.624Z,16.10
2023-07-02T06:14:02.879Z,15.63
2023-07-02T06:16:31.321Z,15.90
2023-07-02T06:19:01.225Z,15.47
2023-07-02T06:21:31.908Z,16.10
2023-07-02T06:24:06.216Z,15.70
2023-07-02T06:26:34.555Z,15.70
2023-07-02T06:29:07.261Z,16.13
2023-07-02T06:31:38.605Z,15.73
2023-07-02T06:34:13.790Z,16.17
2023-07-02T06:40:06.677Z,16.40
2023-07-02T06:42:40.925Z,15.83
2023-07-02T06:45:10.648Z,16.83
2023-07-02T06:47:42.450Z,16.17
2023-07-02T06:50:19.158Z,16.67
2023-07-02T06:52:52.845Z,15.83
2023-07-02T06:55:31.493Z,16.57
2023-07-02T06:58:13.511Z,16.90
2023-07-02T07:01:04.261Z,16.60
2023-07-02T07:03:32.746Z,16.93
2023-07-02T07:06:04.979Z,16.63
2023-07-02T07:08:44.889Z,16.37
2023-07-02T07:11:24.571Z,16.77
2023-07-02T07:13:58.511Z,16.40
2023-07-02T07:16:27.138Z,17.17
2023-07-02T07:18:55.748Z,17.20
2023-07-02T07:21:25.887Z,16.60
2023-07-02T07:23:54.500Z,17.17
2023-07-02T07:26:26.550Z,17.30
2023-07-02T07:28:55.734Z,17.60
2023-07-02T07:31:24.224Z,17.67
2023-07-02T07:33:52.635Z,17.90
2023-07-02T07:36:21.679Z,17.73
2023-07-02T07:38:51.511Z,17.23
2023-07-02T07:41:26.774Z,17.97
2023-07-02T07:44:04.845Z,17.80
2023-07-02T07:46:52.827Z,18.17
2023-07-02T07:49:35.206Z,18.30
2023-07-02T07:52:07.993Z,18.10
2023-07-02T07:54:39.118Z,17.97
2023-07-02T07:57:13.337Z,18.37
2023-07-02T07:59:53.780Z,18.43
2023-07-02T08:02:30.404Z,17.60
2023-07-02T08:05:06.416Z,18.30
2023-07-02T08:07:44.004Z,17.60
2023-07-02T08:10:14.658Z,17.33
2023-07-02T08:12:54.040Z,16.83
2023-07-02T08:15:32.156Z,17.17
2023-07-02T08:18:16.527Z,16.40
2023-07-02T08:20:52.615Z,16.47
2023-07-02T08:23:24.704Z,17.13
2023-07-02T08:25:54.536Z,16.43
2023-07-02T08:28:29.040Z,16.70
2023-07-02T08:31:07.782Z,16.10
2023-07-02T08:33:44.161Z,15.40
2023-07-02T08:36:19.791Z,16.70
2023-07-02T08:38:53.165Z,15.80
2023-07-02T08:41:34.479Z,17.00
2023-07-02T08:44:05.756Z,16.60
2023-07-02T08:46:34.149Z,16.50
2023-07-02T08:49:10.255Z,16.70
2023-07-02T08:52:03.524Z,15.50
2023-07-02T08:54:57.704Z,15.67
2023-07-02T08:58:09.340Z,16.00
2023-07-02T09:00:55.951Z,15.83
2023-07-02T09:03:46.124Z,15.90
2023-07-02T09:06:30.848Z,16.30
2023-07-02T09:09:30.944Z,16.10
2023-07-02T09:12:10.949Z,15.80
2023-07-02T09:15:12.001Z,15.10
2023-07-02T09:17:50.229Z,16.13
2023-07-02T09:20:32.193Z,16.00
2023-07-02T09:23:27.901Z,16.23
2023-07-02T09:29:37.749Z,16.00
2023-07-02T09:33:01.932Z,15.97
2023-07-02T09:35:48.854Z,15.40
2023-07-02T09:38:55.866Z,15.80
2023-07-02T09:44:43.276Z,15.40
2023-07-02T09:47:59.021Z,15.30
2023-07-02T09:50:35.898Z,15.60
2023-07-02T09:53:38.282Z,14.77
2023-07-02T09:56:16.856Z,16.13
2023-07-02T09:59:00.697Z,15.87
2023-07-02T10:01:37.543Z,15.23
2023-07-02T10:04:34.419Z,15.07
2023-07-02T10:07:06.177Z,15.30
2023-07-02T10:10:45.244Z,14.30
2023-07-02T10:37:32.513Z,15.77
2023-07-02T10:40:25.445Z,15.53
2023-07-02T10:42:58.698Z,15.93
2023-07-02T10:46:02.119Z,15.90
2023-07-02T10:48:45.936Z,16.07
2023-07-02T10:51:21.054Z,15.70
2023-07-02T10:54:30.348Z,15.90
2023-07-02T10:57:22.118Z,14.97
2023-07-02T10:59:50.799Z,15.30
2023-07-02T11:02:20.835Z,15.40
2023-07-02T11:04:49.666Z,16.00
2023-07-02T11:07:49.852Z,16.03
2023-07-02T11:10:22.454Z,16.10
2023-07-02T11:12:50.670Z,16.00
2023-07-02T11:15:19.857Z,15.00
2023-07-02T11:17:48.451Z,15.73
2023-07-02T11:20:17.344Z,16.80
2023-07-02T11:22:48.971Z,15.83
2023-07-02T11:25:21.110Z,15.83
2023-07-02T11:28:03.903Z,15.10
2023-07-02T11:30:36.936Z,15.27
2023-07-02T11:33:05.539Z,15.83
2023-07-02T11:35:37.936Z,15.70
2023-07-02T11:38:07.597Z,15.10
2023-07-02T11:40:38.586Z,15.33
2023-07-02T11:43:14.664Z,15.60
2023-07-02T11:45:47.472Z,15.00
2023-07-02T11:48:16.027Z,14.90
2023-07-02T11:50:44.432Z,15.00
2023-07-02T11:53:12.709Z,15.70
2023-07-02T11:56:26.798Z,15.27
2023-07-02T11:58:56.489Z,15.33
2023-07-02T12:01:45.167Z,16.20
2023-07-02T12:04:39.148Z,16.63
2023-07-02T12:07:30.076Z,16.50
2023-07-02T12:14:11.246Z,16.00
2023-07-02T12:16:49.424Z,16.03
2023-07-02T12:19:36.046Z,15.97
2023-07-02T12:22:34.613Z,15.87
2023-07-02T12:25:06.645Z,17.80
2023-07-02T12:28:01.417Z,16.83
2023-07-02T12:30:29.724Z,15.87
2023-07-02T12:33:05.698Z,16.70
2023-07-02T12:35:36.660Z,16.30
2023-07-02T12:38:05.156Z,17.37
2023-07-02T12:40:37.726Z,15.83
2023-07-02T12:44:13.862Z,15.83
2023-07-02T12:47:47.278Z,15.90
2023-07-02T12:50:20.376Z,16.53
2023-07-02T12:52:49.136Z,16.63
2023-07-02T12:55:18.459Z,17.00
2023-07-02T12:58:19.611Z,16.30
2023-07-02T13:00:48.911Z,16.83
2023-07-02T13:03:21.516Z,17.43
2023-07-02T13:05:54.297Z,15.70
2023-07-02T13:08:25.939Z,16.53
2023-07-02T13:10:56.941Z,16.07
2023-07-02T13:13:26.864Z,15.90
2023-07-02T13:15:57.279Z,16.00
2023-07-02T13:18:25.586Z,16.33
2023-07-02T13:20:55.275Z,16.20
2023-07-02T13:23:23.737Z,16.60
2023-07-02T13:25:54.482Z,16.60
2023-07-02T13:28:26.351Z,16.13
2023-07-02T13:30:56.832Z,17.37
2023-07-02T13:33:27.163Z,17.00
2023-07-02T13:35:56.876Z,15.80
2023-07-02T13:38:25.191Z,16.30
2023-07-02T13:40:53.604Z,17.20
2023-07-02T13:43:24.166Z,16.20
2023-07-02T13:45:54.838Z,16.47
2023-07-02T13:48:23.185Z,16.23
2023-07-02T13:50:51.515Z,16.47
2023-07-02T13:53:25.366Z,16.40
2023-07-02T13:56:06.208Z,16.13
2023-07-02T13:58:51.173Z,16.70
2023-07-02T14:01:21.163Z,16.23
2023-07-02T14:03:52.170Z,17.23
2023-07-02T14:06:31.509Z,16.77
2023-07-02T14:09:00.204Z,15.87
2023-07-02T14:11:45.729Z,16.73
2023-07-02T14:14:21.681Z,18.27
2023-07-02T14:17:12.505Z,16.90
2023-07-02T14:19:56.867Z,16.13
2023-07-02T14:22:27.744Z,16.63
2023-07-02T14:24:59.552Z,16.20
2023-07-02T14:27:37.923Z,16.57
2023-07-02T14:30:14.566Z,15.50
2023-07-02T14:32:49.637Z,16.20
2023-07-02T14:35:34.622Z,15.97
2023-07-02T14:38:03.322Z,16.97
2023-07-02T14:43:52.632Z,18.07
2023-07-02T14:49:43.499Z,16.53
2023-07-02T14:52:24.870Z,16.17
2023-07-02T14:58:58.936Z,15.70
2023-07-02T15:01:28.024Z,16.67
2023-07-02T15:04:10.385Z,16.40
2023-07-02T15:06:48.232Z,17.63
2023-07-02T15:09:36.300Z,16.50
2023-07-02T15:15:52.945Z,18.23
2023-07-02T15:21:28.408Z,18.20
2023-07-02T15:24:26.853Z,17.63
2023-07-02T15:27:07.837Z,18.70
2023-07-02T15:29:52.290Z,18.33
2023-07-02T15:32:33.756Z,18.50
2023-07-02T15:35:20.942Z,18.83
2023-07-02T15:42:16.409Z,18.70
2023-07-02T15:44:48.304Z,19.83
2023-07-02T15:51:45.809Z,20.30
2023-07-02T15:54:21.782Z,19.70
2023-07-02T15:57:02.284Z,20.07
2023-07-02T16:02:30.401Z,21.17
2023-07-02T16:05:08.737Z,20.10
2023-07-02T16:07:49.708Z,20.20
2023-07-02T16:10:20.914Z,20.37
2023-07-02T16:13:00.350Z,19.80
2023-07-02T16:15:59.323Z,21.07
2023-07-02T16:18:37.934Z,19.83
2023-07-02T16:21:27.392Z,20.60
2023-07-02T16:24:04.581Z,20.20
2023-07-02T16:26:47.822Z,19.67
2023-07-02T16:30:09.196Z,19.07
2023-07-02T16:33:50.014Z,19.40
2023-07-02T16:37:18.276Z,20.43
2023-07-02T16:40:05.219Z,20.00
2023-07-02T16:42:54.048Z,19.63
2023-07-02T16:46:26.743Z,20.47
2023-07-02T16:49:46.384Z,21.10
2023-07-02T16:52:42.123Z,20.23
2023-07-02T17:01:45.049Z,20.20
2023-07-02T17:07:15.375Z,19.80
2023-07-02T17:10:35.139Z,20.60
2023-07-02T17:16:12.820Z,20.80
2023-07-02T17:19:25.126Z,21.07
2023-07-02T17:22:13.897Z,21.33
2023-07-02T17:24:53.562Z,21.33
2023-07-02T17:33:07.510Z,20.47
2023-07-02T17:36:21.933Z,21.10
2023-07-02T17:39:09.386Z,21.33
2023-07-02T17:41:52.162Z,22.07
2023-07-02T17:48:19.117Z,23.50
2023-07-02T17:55:47.210Z,21.03
2023-07-02T17:58:45.082Z,22.60
2023-07-02T18:02:07.488Z,21.30
2023-07-02T18:05:07.695Z,22.07
2023-07-02T18:07:51.207Z,21.17
2023-07-02T18:10:38.963Z,20.93
2023-07-02T18:20:19.008Z,20.47
2023-07-02T18:23:32.792Z,21.13
2023-07-02T18:26:39.375Z,20.93
2023-07-02T18:29:18.878Z,20.57
2023-07-02T18:32:12.235Z,20.47
2023-07-02T18:34:42.970Z,21.40
2023-07-02T18:37:29.475Z,21.00
2023-07-02T18:40:51.141Z,21.20
2023-07-02T18:43:50.814Z,21.10
2023-07-02T18:46:48.368Z,21.07
2023-07-02T18:49:38.872Z,21.20
2023-07-02T18:52:29.881Z,22.23
2023-07-02T19:08:43.666Z,20.50
2023-07-02T19:15:15.193Z,21.30
2023-07-02T19:18:26.448Z,20.53
2023-07-02T19:24:15.016Z,21.57
2023-07-02T19:30:37.339Z,21.80
2023-07-02T19:41:20.302Z,21.97
2023-07-02T19:47:46.258Z,21.60
2023-07-02T19:50:53.296Z,21.97
2023-07-02T19:53:32.094Z,21.97
2023-07-02T19:56:23.506Z,22.10
2023-07-02T19:59:58.367Z,21.80
2023-07-02T20:03:27.331Z,21.83
2023-07-02T20:06:44.315Z,21.97
2023-07-02T20:09:25.615Z,22.70
2023-07-02T20:12:09.856Z,22.23
2023-07-02T20:15:01.866Z,22.17
2023-07-02T20:17:56.078Z,21.27
2023-07-02T20:20:56.634Z,22.23
2023-07-02T20:24:09.728Z,21.10
2023-07-02T20:26:58.929Z,20.87
2023-07-02T20:30:14.898Z,21.50
2023-07-02T20:35:57.720Z,23.37
2023-07-02T20:38:33.449Z,23.57
2023-07-02T20:41:18.320Z,22.70
2023-07-02T20:43:55.897Z,22.03
2023-07-02T20:46:32.851Z,22.53
2023-07-02T20:49:24.156Z,22.07
2023-07-02T20:55:58.529Z,23.83
2023-07-02T21:03:09.980Z,23.37
2023-07-02T21:06:07.653Z,23.10
2023-07-02T21:11:47.798Z,21.90
2023-07-02T21:14:43.580Z,23.33
2023-07-02T21:17:46.499Z,23.07
2023-07-02T21:20:29.226Z,23.00
2023-07-02T21:23:31.913Z,24.07
2023-07-02T21:26:23.538Z,23.57
2023-07-02T21:29:03.170Z,22.40
2023-07-02T21:32:14.116Z,22.40
2023-07-02T21:35:07.113Z,24.50
2023-07-02T21:38:19.719Z,25.63
2023-07-02T21:40:57.859Z,23.50
2023-07-02T21:43:48.477Z,24.10
2023-07-02T21:46:40.153Z,23.97
2023-07-02T21:49:47.108Z,22.60
2023-07-02T21:53:17.801Z,23.30
2023-07-02T21:56:22.133Z,22.30
2023-07-02T21:59:20.834Z,22.07
2023-07-02T22:02:35.705Z,23.30
2023-07-02T22:05:17.160Z,22.83
2023-07-02T22:07:48.109Z,22.97
2023-07-02T22:10:23.435Z,23.93
2023-07-02T22:16:59.754Z,22.57
2023-07-02T22:19:57.670Z,23.20
2023-07-02T22:22:38.618Z,22.13
2023-07-02T22:25:22.261Z,22.93
2023-07-02T22:28:11.268Z,22.73
2023-07-02T22:30:59.562Z,24.57
2023-07-02T22:33:52.080Z,23.60
2023-07-02T22:36:38.967Z,23.13
2023-07-02T22:39:15.039Z,22.10
2023-07-02T22:42:01.882Z,22.50
2023-07-02T22:44:53.006Z,24.13
2023-07-02T22:50:46.744Z,24.23
2023-07-02T22:53:37.696Z,23.57
2023-07-02T22:56:26.704Z,23.50
2023-07-02T22:59:02.719Z,23.90
2023-07-02T23:01:41.306Z,26.33
2023-07-02T23:04:20.038Z,25.00
2023-07-02T23:07:00.985Z,24.07
2023-07-02T23:09:50.143Z,24.47
2023-07-02T23:12:28.189Z,24.90
2023-07-02T23:15:14.315Z,22.83
2023-07-02T23:17:50.996Z,23.07
2023-07-02T23:21:01.143Z,23.57
2023-07-02T23:23:45.923Z,24.37
2023-07-02T23:26:23.101Z,24.10
2023-07-02T23:29:00.086Z,25.10
2023-07-02T23:31:30.551Z,23.80
2023-07-02T23:34:15.809Z,23.17
2023-07-02T23:37:01.611Z,23.13
2023-07-02T23:39:47.867Z,22.43
2023-07-02T23:42:35.416Z,23.40
2023-07-02T23:45:24.475Z,23.60
2023-07-02T23:48:16.656Z,23.30
2023-07-02T23:51:00.749Z,22.10
2023-07-02T23:53:43.415Z,24.63
2023-07-02T23:56:30.031Z,24.40
2023-07-02T23:59:14.682Z,23.30
